5NK5 weather

Kingdom Field
Oswego, New York, United States

Public forecast

Using degrees Fahrenheit for public forecast. Weather courtesy of forecast.io.

Closest aviation weather report (METAR) to Kingdom Field

Closest report is Oswego County Airport, 4.2 nm (7.7 km) SE. Retrieved 2019/12/13 03:54 UTC (58 minutes ago):

KFZY 130354Z AUTO VRB05KT 10SM OVC100 M01/M12 A3039 RMK AO2 SLP299 T10111117

Closest aviation forecast (TAF) to Kingdom Field

Closest forecast is Syracuse Hancock International Airport, 23.1 nm (42.8 km) SE. Retrieved 2019-12-13 00:24 UTC (4 hours ago):

TAF KSYR 122321Z 1300/1324 12007KT P6SM SCT100 FM130400 15010KT P6SM SCT200 BKN230 WS020/19040KT FM131300 16008KT P6SM BKN040 FM132300 12005KT P6SM OVC030